Relevés horaires Beauvechain (Belgique)


Relevés horaires à Beauvechain - Samedi 27 Juin 2020
Heure UTC1 Température [°C] Vent [km/h] Hum. [%] Pres.4 [hPa] Visi. [Km] Nébu. [octa] Préc.5 [mm] Cond.
2m. Res. Ros. Dir.2 Vit. Moy. Raf.3
23:00 18.1 18.1 14.7 NNO 0.0 -- 0.0 81 1010.3(0.6/3h) 20 -- -- --
22:00 20.2 20.2 15.3 NNO 0.0 -- 0.0 73 1009.8(0.5/3h) 20 -- -- --
21:00 20.7 20.7 14.9 NNO 0.0 -- 0.0 69 1009.7(0.4/3h) 20 -- -- --
20:00 21.0 21.0 14.8 NNO 0.0 -- 0.0 68 1009.6(0.2/3h) 20 -- -- --
19:00 21.8 21.8 14.6 NNO 0.0 -- 0.0 64 1009.2(-0.2/3h) 20 -- -- --
18:00 22.5 22.5 14.5 NNO 0.0 -- 0.0 61 1009.2(-0.5/3h) 20 -- -- --
17:00 22.8 22.8 14.6 NNO 0.0 -- 0.0 60 1009.2(-0.6/3h) 20 -- -- --
16:00 22.9 22.9 14.8 NNO 0.0 -- 0.0 60 1009.5(0.0/3h) 16 -- -- --
15:00 22.4 22.4 14.3 NNO 0.0 -- 0.0 60 1009.7(0.3/3h) 20 -- -- --
14:00 21.9 21.9 14.8 NNO 0.0 -- 0.0 64 1009.8(0.5/3h) 20 -- -- --
13:00 23.5 23.5 14.0 NNO 0.0 -- 0.0 55 1009.5(0.0/3h) 20 -- -- --
12:00 24.0 24.0 14.3 NNO 0.0 -- 0.0 55 1009.3(0.0/3h) 20 -- -- --
11:00 24.6 24.6 14.4 NNO 0.0 -- 0.0 53 1009.2(0.1/3h) 20 -- -- --
10:00 23.4 23.4 14.5 NNO 0.0 -- 0.0 57 1009.6(0.4/3h) 20 -- -- --
09:00 21.8 21.8 16.2 NNO 0.0 -- 0.0 71 1009.3(-0.1/3h) 20 -- -- --
08:00 21.7 21.7 16.4 NNO 0.0 -- 0.0 72 1009.5(-0.3/3h) 20 -- -- --
07:00 19.6 19.6 16.3 NNO 0.0 -- 0.0 81 1009.2(-0.2/3h) 20 -- -- --
06:00 18.1 18.1 15.7 NNO 0.0 -- 0.0 86 1009.7(0.4/3h) 20 -- 0.1/12h
NA
05:00 18.3 18.3 15.6 NNO 0.0 -- 0.0 84 1010(0.0/3h) 20 -- -- Il y a de la pluie faible et continue à la station au moment de l'observation
04:00 18.6 18.6 16.2 NNO 0.0 -- 0.0 86 1009.7(-0.1/3h) 20 -- -- --
03:00 18.8 18.8 16.4 NNO 0.0 -- 0.0 86 1009.2(-0.4/3h) 16 -- -- NA
02:00 19.6 19.6 15.8 NNO 0.0 -- 0.0 79 1009.8(-0.1/3h) 20 -- -- --
01:00 19.8 19.8 16.4 NNO 0.0 -- 0.0 81 1009.7(-0.4/3h) 20 -- -- --
00:00 20.3 20.3 16.1 NNO 0.0 -- 0.0 77 1009.7(-0.8/3h) 20 -- -- --

1 Coordinated Universal Time. Actuellement il est 11:00 locale et 09:00 UTC.

2 Le vent souffle depuis la direction indiquée vers la direction oposée.

3 Les rafales max. sont disponible 40 min après l'heure du relevé.

4 Pour les stations d'altitude (plus de 600m) le géopotentiel du niveau le plus proche de la pression obligatoire est indiqué.

5 Les stations disposant d'un diffuseur peuvent indiquer "trace". Cela signifie que des précipitations ont touchés le sol mais que la quantité est inférieure à 0.1 mm.

Récapitulatif de la journée
Température [°C] Vent [km/h] Ensoleillement4 [h] Precipitations totale5 [mm] Pression [Hpa]
Min1 Max.2 Moy.3 Max. Min Max.
18.0 25.2 0 0.0 0 h 0 min 0 1009.2 1010.3

1 Température minimale relevée entre 18:00 UTC la veille et 18:00 UTC le jour donné.

2 Température maximale relevée entre 06:00 UTC le jour donné et 06:00 UTC le lendemain.

3 Vent moyen de la journée basé sur les relevés horaires.

4 Ensoleillement en heures relevé entre 06:00 UTC la veille et 06:00 UTC le jour donné.

5 Précipitations totales tombées entre 06:00 UTC la jour donné et 06:00 UTC le lendemain.

Graphiques horaires